Terminal Aerodrome Forecast
Issued by NWS Detroit/Pontiac, MI

Home | Current Version | Previous Version | Text Only | Print | Product List | Glossary On
Versions: 1 2 3 4 5 6 7 8 9 10 11 12 13 14 15 16 17 18 19 20 21 22 23 24 25 26 27 28 29 30 31 32 33 34 35 36 37 38 39 40 41 42 43 44 45 46 47 48 49 50
000
FTUS43 KDTX 230135 AAO
TAFDTW
TAF AMD
KDTW 230135Z 2302/2406 13010KT P6SM SCT002 WS010/23040KT
      TEMPO 2302/2304 BKN002
     FM230500 19009KT P6SM SKC
     FM231100 21012KT P6SM BKN028
     FM231600 22016G30KT P6SM BKN040
      TEMPO 2320/2322 2SM TSRA BR BKN028 OVC040CB
     FM232200 29015G25KT 5SM -SHRA BKN018 OVC025
     FM240000 30014G22KT P6SM SCT018 OVC025
     FM240400 32010KT P6SM BKN025=

USA.gov is the U.S. government's official web portal to all federal, state and local government web resources and services.